Islander — ZCOT5 — position and weather

sailwx.info

Track history (hours):
 
Tides and Currents Weather Stations Pressure Air Temp Water Temp Dewpoint Dewpoint Depression Visibility Wind Speed Wind Dir Waves Ship Positions

Islander

Last reported at 2018-May-19 17:19 UTC. Time now 2018-Jun-22 22:58 UTC.
Position N 54°35' W 130°44'.
Warning: this ship's position is 34 days out of date.

Length 26 m; draft 2.2 m.

Type: Pleasure craft. MMSI: 319160000.

Date/timePositionNaut miles runAvg speedWind from/ knotsBaromVisibWave heightAir tempDewpointWater temp
2018-May-19 17:19N 54°35' W 130°44'3 9.0
2018-May-19 16:58N 54°32' W 130°43'4 8.9
2018-May-19 16:30N 54°28' W 130°42'4 8.9
2018-May-19 16:00N 54°24' W 130°40'4 8.7
2018-May-19 15:30N 54°20' W 130°36'5 9.4
2018-May-19 15:00N 54°17' W 130°31'4 9.0
2018-May-19 14:30N 54°14' W 130°24'4 7.1
2018-May-19 14:00N 54°17' W 130°22'2 4.2
2018-May-19 13:25N 54°19' W 130°19'0 0.0
2018-May-19 12:55N 54°19' W 130°19'0 0.0
2018-May-19 12:25N 54°19' W 130°19'0 0.0
2018-May-19 11:58N 54°19' W 130°19'0 0.0
2018-May-19 11:28N 54°19' W 130°19'0 0.0
2018-May-19 10:58N 54°19' W 130°19'0 0.0
2018-May-19 10:28N 54°19' W 130°19'0 0.0
2018-May-19 10:00N 54°19' W 130°19'0 0.0
2018-May-19 09:30N 54°19' W 130°19'0 0.0
2018-May-19 09:00N 54°19' W 130°19'0 0.0
2018-May-19 08:30N 54°19' W 130°19'0 0.0
2018-May-19 08:00N 54°19' W 130°19'0 0.0
2018-May-19 07:27N 54°19' W 130°19'0 0.0
2018-May-19 07:00N 54°19' W 130°19'0 0.0
2018-May-19 06:30N 54°19' W 130°19'0 0.0
2018-May-19 06:00N 54°19' W 130°19'0 0.0
2018-May-19 05:30N 54°19' W 130°19'0 0.0
2018-May-19 05:00N 54°19' W 130°19'0 0.0
2018-May-19 04:30N 54°19' W 130°19'0 0.0
2018-May-19 04:00N 54°19' W 130°19'0 0.0
2018-May-19 03:30N 54°19' W 130°19'0 0.0
2018-May-19 03:00N 54°19' W 130°19'0 0.0
2018-May-19 02:24N 54°19' W 130°19'0 0.0
2018-May-19 02:00N 54°19' W 130°19'0 0.0
2018-May-19 01:30N 54°19' W 130°19'0 0.0
2018-May-19 01:00N 54°19' W 130°19'0 0.0
2018-May-19 00:27N 54°19' W 130°19'0 0.0
2018-May-19 00:00N 54°19' W 130°19'0 0.0
2018-May-18 23:30N 54°19' W 130°19'3 5.6
2018-May-18 23:00N 54°17' W 130°22'4 9.1
2018-May-18 22:31N 54°12' W 130°21'4 8.2
2018-May-18 22:01N 54°09' W 130°19'5 9.5
2018-May-18 21:30N 54°04' W 130°15'5 9.9
2018-May-18 21:00N 53°59' W 130°13'4 8.7
2018-May-18 20:31N 53°55' W 130°11'4 8.6
2018-May-18 20:00N 53°53' W 130°05'4 8.2
2018-May-18 19:30N 53°50' W 130°00'4 9.1
2018-May-18 19:00N 53°47' W 129°55'70 3.2
2018-May-17 20:59N 52°44' W 129°04'18 9.8
2018-May-17 19:07N 52°27' W 128°51'4 9.7
2018-May-17 18:44N 52°24' W 128°49'2 9.8
2018-May-17 18:30N 52°22' W 128°47'5 9.4
2018-May-17 17:56N 52°17' W 128°45'4 7.7
2018-May-17 17:25N 52°15' W 128°39'4 9.3
2018-May-17 16:59N 52°15' W 128°33'5 9.4
2018-May-17 16:29N 52°15' W 128°25'5 9.9
2018-May-17 16:00N 52°15' W 128°17'5 9.5
2018-May-17 15:30N 52°13' W 128°10'4 7.1
2018-May-17 14:59N 52°10' W 128°07'0 0.4
2018-May-17 14:30N 52°10' W 128°07'2 0.8
2018-May-17 12:16N 52°09' W 128°05'0 0.0
2018-May-17 11:58N 52°09' W 128°05'0 0.0
2018-May-17 11:28N 52°09' W 128°05'0 0.0
2018-May-17 10:55N 52°09' W 128°05'0 0.0
2018-May-17 09:37N 52°09' W 128°05'0 0.0
2018-May-17 09:10N 52°09' W 128°05'0 0.0
2018-May-17 08:10N 52°09' W 128°05'0 0.1
2018-May-17 07:52N 52°09' W 128°05'0 0.0
2018-May-17 07:04N 52°09' W 128°05'0 0.1
2018-May-17 06:46N 52°09' W 128°05'0 0.0
2018-May-17 06:28N 52°09' W 128°05'0 0.0
2018-May-17 05:52N 52°09' W 128°05'0 0.0
2018-May-17 05:28N 52°09' W 128°05'0 0.0
2018-May-17 01:22N 52°09' W 128°05'2 4.8
2018-May-17 00:58N 52°10' W 128°07'4 8.0
2018-May-17 00:30N 52°06' W 128°07'5 8.0
2018-May-16 23:55N 52°05' W 128°00'3 8.1
2018-May-16 23:30N 52°03' W 127°56'4 8.3
2018-May-16 23:00N 51°59' W 127°55'4 8.7
2018-May-16 22:30N 51°54' W 127°55'4 8.9
2018-May-16 22:00N 51°50' W 127°55'4 8.8
2018-May-16 21:30N 51°45' W 127°55'4 8.4
2018-May-16 21:00N 51°41' W 127°54'4 8.7
2018-May-16 20:30N 51°37' W 127°53'4 8.5
2018-May-16 20:00N 51°33' W 127°52'4 8.5
2018-May-16 19:30N 51°29' W 127°51'5 9.2
2018-May-16 19:00N 51°24' W 127°50'5 8.7
2018-May-16 18:24N 51°19' W 127°48'3 8.3
2018-May-16 18:00N 51°16' W 127°48'6 8.5
2018-May-16 17:20N 51°10' W 127°48'3 8.2
2018-May-16 17:00N 51°07' W 127°47'4 8.7
2018-May-16 16:29N 51°03' W 127°45'5 9.1
2018-May-16 15:59N 50°59' W 127°43'510.2
2018-May-16 15:30N 50°54' W 127°40'5 9.9
2018-May-16 15:00N 50°49' W 127°38'5 9.3
2018-May-16 14:30N 50°47' W 127°31'4 8.1
2018-May-16 14:00N 50°43' W 127°29'1 0.0
2018-May-15 19:56N 50°43' W 127°29'3 8.0
2018-May-15 19:30N 50°46' W 127°26'5 8.6
2018-May-15 18:55N 50°43' W 127°20'6 9.1
2018-May-15 18:15N 50°39' W 127°13'4 8.5
2018-May-15 17:50N 50°37' W 127°08'3 8.8
2018-May-15 17:29N 50°37' W 127°03'14 0.8
2018-May-14 23:51N 50°36' W 126°42'3 7.4
2018-May-14 23:29N 50°38' W 126°45'6 9.8
2018-May-14 22:53N 50°38' W 126°36'4 9.7
2018-May-14 22:28N 50°38' W 126°29'44 4.7
2018-May-14 13:02N 50°28' W 125°22'0 0.0
2018-May-14 11:32N 50°28' W 125°22'0 0.0
2018-May-14 11:08N 50°28' W 125°22'0 0.0
2018-May-14 10:50N 50°28' W 125°22'0 0.0
2018-May-14 08:08N 50°28' W 125°22'0 0.0
2018-May-14 07:05N 50°28' W 125°22'0 0.0
2018-May-14 06:59N 50°28' W 125°22'0 0.0
2018-May-14 06:20N 50°28' W 125°22'0 0.0
2018-May-14 05:56N 50°28' W 125°22'3 0.5
2018-May-13 23:56N 50°27' W 125°17'4 8.9
2018-May-13 23:30N 50°24' W 125°13'3 5.9
2018-May-13 23:00N 50°22' W 125°09'4 8.6
2018-May-13 22:30N 50°19' W 125°05'4 8.4
2018-May-13 22:00N 50°20' W 124°58'5 9.7
2018-May-13 21:30N 50°18' W 124°51'4 8.8
2018-May-13 21:00N 50°19' W 124°44'4 8.2
2018-May-13 20:30N 50°17' W 124°39'3 6.3
2018-May-13 20:00N 50°14' W 124°37'5 8.7
2018-May-13 19:29N 50°10' W 124°39'4 8.6
2018-May-13 19:00N 50°08' W 124°44'3 5.7
2018-May-13 18:30N 50°05' W 124°46'4 7.4
2018-May-13 17:59N 50°02' W 124°51'4 8.1
2018-May-13 17:29N 49°59' W 124°47'1 1.7
2018-May-13 16:58N 49°59' W 124°46'0 0.0
2018-May-13 16:28N 49°59' W 124°46'0 0.0
2018-May-13 15:58N 49°59' W 124°46'0 0.0
2018-May-13 15:10N 49°59' W 124°46'0 0.0
2018-May-13 14:58N 49°59' W 124°46'0 0.0
2018-May-13 14:28N 49°59' W 124°46'0 0.0
2018-May-13 13:55N 49°59' W 124°46'0 0.0
2018-May-13 13:22N 49°59' W 124°46'0 0.0
2018-May-13 12:58N 49°59' W 124°46'0 0.0
2018-May-13 12:28N 49°59' W 124°46'0 0.0
2018-May-13 11:58N 49°59' W 124°46'0 0.0
2018-May-13 11:28N 49°59' W 124°46'0 0.0
2018-May-13 10:58N 49°59' W 124°46'0 0.0
2018-May-13 10:28N 49°59' W 124°46'0 0.0
2018-May-13 09:58N 49°59' W 124°46'0 0.0
2018-May-13 09:28N 49°59' W 124°46'0 0.0
2018-May-13 08:58N 49°59' W 124°46'0 0.0
2018-May-13 08:28N 49°59' W 124°46'0 0.0
2018-May-13 07:58N 49°59' W 124°46'0 0.0
2018-May-13 07:28N 49°59' W 124°46'0 0.0
2018-May-13 06:58N 49°59' W 124°46'0 0.0
2018-May-13 06:28N 49°59' W 124°46'0 0.0
2018-May-13 05:55N 49°59' W 124°46'0 0.0
2018-May-13 05:28N 49°59' W 124°46'0 0.0
2018-May-13 04:58N 49°59' W 124°46'0 0.0
2018-May-13 04:25N 49°59' W 124°46'0 0.0
2018-May-13 03:52N 49°59' W 124°46'0 0.0
2018-May-13 03:28N 49°59' W 124°46'0 0.0
2018-May-13 02:58N 49°59' W 124°46'0 0.0
2018-May-13 02:28N 49°59' W 124°46'0 0.0
2018-May-13 01:58N 49°59' W 124°46'0 0.0
2018-May-13 01:28N 49°59' W 124°46'0 0.1
2018-May-13 00:59N 49°59' W 124°46'3 6.9
2018-May-13 00:30N 49°56' W 124°43'5 9.3
2018-May-13 00:00N 49°53' W 124°38'5 9.4
2018-May-12 23:30N 49°49' W 124°33'5 9.1
2018-May-12 23:00N 49°46' W 124°28'5 9.3
2018-May-12 22:30N 49°45' W 124°21'5 9.0
2018-May-12 21:59N 49°45' W 124°14'8 0.3
2018-May-11 16:17N 49°39' W 124°05'2 8.0
2018-May-11 15:59N 49°37' W 124°05'4 7.4
2018-May-11 15:28N 49°33' W 124°06'6 0.4
2018-May-10 22:50N 49°30' W 124°14'38 7.1
2018-May-10 17:31N 49°21' W 123°17'0 9.5
2018-May-10 17:29N 49°20' W 123°17'4 7.6
2018-May-10 17:01N 49°19' W 123°12'4 7.7
2018-May-10 16:30N 49°18' W 123°07'1 1.1
2018-May-10 15:56N 49°18' W 123°08'0 0.0
2018-May-10 15:29N 49°18' W 123°08'0 0.0
2018-May-10 14:59N 49°18' W 123°08'0 0.0
2018-May-10 14:23N 49°18' W 123°08'0 0.0
2018-May-10 13:59N 49°18' W 123°08'0 0.0
2018-May-10 13:26N 49°18' W 123°08'0 0.0
2018-May-10 12:59N 49°18' W 123°08'0 0.0
2018-May-10 12:29N 49°18' W 123°08'0 0.0
2018-May-10 11:59N 49°18' W 123°08'0 0.0
2018-May-10 11:29N 49°18' W 123°08'0 0.0
2018-May-10 10:59N 49°18' W 123°08'0 0.0
2018-May-10 10:29N 49°18' W 123°08'0 0.0
2018-May-10 09:59N 49°18' W 123°08'0 0.0
2018-May-10 09:29N 49°18' W 123°08'0 0.0
2018-May-10 08:59N 49°18' W 123°08'0 0.0
2018-May-10 08:29N 49°18' W 123°08'0 0.0
2018-May-10 07:59N 49°18' W 123°08'0 0.0
2018-May-10 07:29N 49°18' W 123°08'0 0.0
2018-May-10 06:59N 49°18' W 123°08'0 0.0
2018-May-10 06:29N 49°18' W 123°08'0 0.0
2018-May-10 05:50N 49°18' W 123°08'0 0.0
2018-May-10 05:29N 49°18' W 123°08'0 0.0
2018-May-10 04:56N 49°18' W 123°08'0 0.0
2018-May-10 04:20N 49°18' W 123°08'0 0.0
2018-May-10 03:41N 49°18' W 123°08'0 0.0
2018-May-10 03:23N 49°18' W 123°08'0 0.0
2018-May-10 02:56N 49°18' W 123°08'0 0.0
2018-May-10 01:32N 49°18' W 123°08'0 0.1
2018-May-10 01:26N 49°18' W 123°08'0 0.0
2018-May-10 00:50N 49°18' W 123°08'0 0.0
2018-May-10 00:20N 49°18' W 123°08'0 0.0
2018-May-09 23:56N 49°18' W 123°08'0 0.0
2018-May-09 23:29N 49°18' W 123°08'0 0.0
2018-May-09 22:59N 49°18' W 123°08'0 0.0
2018-May-09 22:26N 49°18' W 123°08'0 0.0
2018-May-09 21:59N 49°18' W 123°08'0 0.0
2018-May-09 21:29N 49°18' W 123°08'0 0.0
2018-May-09 20:53N 49°18' W 123°08'0 0.0
2018-May-09 20:26N 49°18' W 123°08'0 0.0
2018-May-09 19:59N 49°18' W 123°08'0 0.0
2018-May-09 19:19N 49°18' W 123°08'0 0.0
2018-May-09 18:58N 49°18' W 123°08'0 0.0
2018-May-09 18:28N 49°18' W 123°08'0 0.0
2018-May-09 17:58N 49°18' W 123°08'0 0.0
2018-May-09 17:28N 49°18' W 123°08'  
Track history (hours):
 
Tides and Currents Weather Stations Pressure Air Temp Water Temp Dewpoint Dewpoint Depression Visibility Wind Speed Wind Dir Waves Ship Positions

Islander

Last reported at 2018-May-19 17:19 UTC. Time now 2018-Jun-22 22:58 UTC.
Position N 54°35' W 130°44'.
Warning: this ship's position is 34 days out of date.

Length 26 m; draft 2.2 m.

Type: Pleasure craft. MMSI: 319160000.

Date/timePositionNaut miles runAvg speedWind from/ knotsBaromVisibWave heightAir tempDewpointWater temp
2018-May-19 17:19N 54°35' W 130°44'3 9.0
2018-May-19 16:58N 54°32' W 130°43'4 8.9
2018-May-19 16:30N 54°28' W 130°42'4 8.9
2018-May-19 16:00N 54°24' W 130°40'4 8.7
2018-May-19 15:30N 54°20' W 130°36'5 9.4
2018-May-19 15:00N 54°17' W 130°31'4 9.0
2018-May-19 14:30N 54°14' W 130°24'4 7.1
2018-May-19 14:00N 54°17' W 130°22'2 4.2
2018-May-19 13:25N 54°19' W 130°19'0 0.0
2018-May-19 12:55N 54°19' W 130°19'0 0.0
2018-May-19 12:25N 54°19' W 130°19'0 0.0
2018-May-19 11:58N 54°19' W 130°19'0 0.0
2018-May-19 11:28N 54°19' W 130°19'0 0.0
2018-May-19 10:58N 54°19' W 130°19'0 0.0
2018-May-19 10:28N 54°19' W 130°19'0 0.0
2018-May-19 10:00N 54°19' W 130°19'0 0.0
2018-May-19 09:30N 54°19' W 130°19'0 0.0
2018-May-19 09:00N 54°19' W 130°19'0 0.0
2018-May-19 08:30N 54°19' W 130°19'0 0.0
2018-May-19 08:00N 54°19' W 130°19'0 0.0
2018-May-19 07:27N 54°19' W 130°19'0 0.0
2018-May-19 07:00N 54°19' W 130°19'0 0.0
2018-May-19 06:30N 54°19' W 130°19'0 0.0
2018-May-19 06:00N 54°19' W 130°19'0 0.0
2018-May-19 05:30N 54°19' W 130°19'0 0.0
2018-May-19 05:00N 54°19' W 130°19'0 0.0
2018-May-19 04:30N 54°19' W 130°19'0 0.0
2018-May-19 04:00N 54°19' W 130°19'0 0.0
2018-May-19 03:30N 54°19' W 130°19'0 0.0
2018-May-19 03:00N 54°19' W 130°19'0 0.0
2018-May-19 02:24N 54°19' W 130°19'0 0.0
2018-May-19 02:00N 54°19' W 130°19'0 0.0
2018-May-19 01:30N 54°19' W 130°19'0 0.0
2018-May-19 01:00N 54°19' W 130°19'0 0.0
2018-May-19 00:27N 54°19' W 130°19'0 0.0
2018-May-19 00:00N 54°19' W 130°19'0 0.0
2018-May-18 23:30N 54°19' W 130°19'3 5.6
2018-May-18 23:00N 54°17' W 130°22'4 9.1
2018-May-18 22:31N 54°12' W 130°21'4 8.2
2018-May-18 22:01N 54°09' W 130°19'5 9.5
2018-May-18 21:30N 54°04' W 130°15'5 9.9
2018-May-18 21:00N 53°59' W 130°13'4 8.7
2018-May-18 20:31N 53°55' W 130°11'4 8.6
2018-May-18 20:00N 53°53' W 130°05'4 8.2
2018-May-18 19:30N 53°50' W 130°00'4 9.1
2018-May-18 19:00N 53°47' W 129°55'70 3.2
2018-May-17 20:59N 52°44' W 129°04'18 9.8
2018-May-17 19:07N 52°27' W 128°51'4 9.7
2018-May-17 18:44N 52°24' W 128°49'2 9.8
2018-May-17 18:30N 52°22' W 128°47'5 9.4
2018-May-17 17:56N 52°17' W 128°45'4 7.7
2018-May-17 17:25N 52°15' W 128°39'4 9.3
2018-May-17 16:59N 52°15' W 128°33'5 9.4
2018-May-17 16:29N 52°15' W 128°25'5 9.9
2018-May-17 16:00N 52°15' W 128°17'5 9.5
2018-May-17 15:30N 52°13' W 128°10'4 7.1
2018-May-17 14:59N 52°10' W 128°07'0 0.4
2018-May-17 14:30N 52°10' W 128°07'2 0.8
2018-May-17 12:16N 52°09' W 128°05'0 0.0
2018-May-17 11:58N 52°09' W 128°05'0 0.0
2018-May-17 11:28N 52°09' W 128°05'0 0.0
2018-May-17 10:55N 52°09' W 128°05'0 0.0
2018-May-17 09:37N 52°09' W 128°05'0 0.0
2018-May-17 09:10N 52°09' W 128°05'0 0.0
2018-May-17 08:10N 52°09' W 128°05'0 0.1
2018-May-17 07:52N 52°09' W 128°05'0 0.0
2018-May-17 07:04N 52°09' W 128°05'0 0.1
2018-May-17 06:46N 52°09' W 128°05'0 0.0
2018-May-17 06:28N 52°09' W 128°05'0 0.0
2018-May-17 05:52N 52°09' W 128°05'0 0.0
2018-May-17 05:28N 52°09' W 128°05'0 0.0
2018-May-17 01:22N 52°09' W 128°05'2 4.8
2018-May-17 00:58N 52°10' W 128°07'4 8.0
2018-May-17 00:30N 52°06' W 128°07'5 8.0
2018-May-16 23:55N 52°05' W 128°00'3 8.1
2018-May-16 23:30N 52°03' W 127°56'4 8.3
2018-May-16 23:00N 51°59' W 127°55'4 8.7
2018-May-16 22:30N 51°54' W 127°55'4 8.9
2018-May-16 22:00N 51°50' W 127°55'4 8.8
2018-May-16 21:30N 51°45' W 127°55'4 8.4
2018-May-16 21:00N 51°41' W 127°54'4 8.7
2018-May-16 20:30N 51°37' W 127°53'4 8.5
2018-May-16 20:00N 51°33' W 127°52'4 8.5
2018-May-16 19:30N 51°29' W 127°51'5 9.2
2018-May-16 19:00N 51°24' W 127°50'5 8.7
2018-May-16 18:24N 51°19' W 127°48'3 8.3
2018-May-16 18:00N 51°16' W 127°48'6 8.5
2018-May-16 17:20N 51°10' W 127°48'3 8.2
2018-May-16 17:00N 51°07' W 127°47'4 8.7
2018-May-16 16:29N 51°03' W 127°45'5 9.1
2018-May-16 15:59N 50°59' W 127°43'510.2
2018-May-16 15:30N 50°54' W 127°40'5 9.9
2018-May-16 15:00N 50°49' W 127°38'5 9.3
2018-May-16 14:30N 50°47' W 127°31'4 8.1
2018-May-16 14:00N 50°43' W 127°29'1 0.0
2018-May-15 19:56N 50°43' W 127°29'3 8.0
2018-May-15 19:30N 50°46' W 127°26'5 8.6
2018-May-15 18:55N 50°43' W 127°20'6 9.1
2018-May-15 18:15N 50°39' W 127°13'4 8.5
2018-May-15 17:50N 50°37' W 127°08'3 8.8
2018-May-15 17:29N 50°37' W 127°03'14 0.8
2018-May-14 23:51N 50°36' W 126°42'3 7.4
2018-May-14 23:29N 50°38' W 126°45'6 9.8
2018-May-14 22:53N 50°38' W 126°36'4 9.7
2018-May-14 22:28N 50°38' W 126°29'44 4.7
2018-May-14 13:02N 50°28' W 125°22'0 0.0
2018-May-14 11:32N 50°28' W 125°22'0 0.0
2018-May-14 11:08N 50°28' W 125°22'0 0.0
2018-May-14 10:50N 50°28' W 125°22'0 0.0
2018-May-14 08:08N 50°28' W 125°22'0 0.0
2018-May-14 07:05N 50°28' W 125°22'0 0.0
2018-May-14 06:59N 50°28' W 125°22'0 0.0
2018-May-14 06:20N 50°28' W 125°22'0 0.0
2018-May-14 05:56N 50°28' W 125°22'3 0.5
2018-May-13 23:56N 50°27' W 125°17'4 8.9
2018-May-13 23:30N 50°24' W 125°13'3 5.9
2018-May-13 23:00N 50°22' W 125°09'4 8.6
2018-May-13 22:30N 50°19' W 125°05'4 8.4
2018-May-13 22:00N 50°20' W 124°58'5 9.7
2018-May-13 21:30N 50°18' W 124°51'4 8.8
2018-May-13 21:00N 50°19' W 124°44'4 8.2
2018-May-13 20:30N 50°17' W 124°39'3 6.3
2018-May-13 20:00N 50°14' W 124°37'5 8.7
2018-May-13 19:29N 50°10' W 124°39'4 8.6
2018-May-13 19:00N 50°08' W 124°44'3 5.7
2018-May-13 18:30N 50°05' W 124°46'4 7.4
2018-May-13 17:59N 50°02' W 124°51'4 8.1
2018-May-13 17:29N 49°59' W 124°47'1 1.7
2018-May-13 16:58N 49°59' W 124°46'0 0.0
2018-May-13 16:28N 49°59' W 124°46'0 0.0
2018-May-13 15:58N 49°59' W 124°46'0 0.0
2018-May-13 15:10N 49°59' W 124°46'0 0.0
2018-May-13 14:58N 49°59' W 124°46'0 0.0
2018-May-13 14:28N 49°59' W 124°46'0 0.0
2018-May-13 13:55N 49°59' W 124°46'0 0.0
2018-May-13 13:22N 49°59' W 124°46'0 0.0
2018-May-13 12:58N 49°59' W 124°46'0 0.0
2018-May-13 12:28N 49°59' W 124°46'0 0.0
2018-May-13 11:58N 49°59' W 124°46'0 0.0
2018-May-13 11:28N 49°59' W 124°46'0 0.0
2018-May-13 10:58N 49°59' W 124°46'0 0.0
2018-May-13 10:28N 49°59' W 124°46'0 0.0
2018-May-13 09:58N 49°59' W 124°46'0 0.0
2018-May-13 09:28N 49°59' W 124°46'0 0.0
2018-May-13 08:58N 49°59' W 124°46'0 0.0
2018-May-13 08:28N 49°59' W 124°46'0 0.0
2018-May-13 07:58N 49°59' W 124°46'0 0.0
2018-May-13 07:28N 49°59' W 124°46'0 0.0
2018-May-13 06:58N 49°59' W 124°46'0 0.0
2018-May-13 06:28N 49°59' W 124°46'0 0.0
2018-May-13 05:55N 49°59' W 124°46'0 0.0
2018-May-13 05:28N 49°59' W 124°46'0 0.0
2018-May-13 04:58N 49°59' W 124°46'0 0.0
2018-May-13 04:25N 49°59' W 124°46'0 0.0
2018-May-13 03:52N 49°59' W 124°46'0 0.0
2018-May-13 03:28N 49°59' W 124°46'0 0.0
2018-May-13 02:58N 49°59' W 124°46'0 0.0
2018-May-13 02:28N 49°59' W 124°46'0 0.0
2018-May-13 01:58N 49°59' W 124°46'0 0.0
2018-May-13 01:28N 49°59' W 124°46'0 0.1
2018-May-13 00:59N 49°59' W 124°46'3 6.9
2018-May-13 00:30N 49°56' W 124°43'5 9.3
2018-May-13 00:00N 49°53' W 124°38'5 9.4
2018-May-12 23:30N 49°49' W 124°33'5 9.1
2018-May-12 23:00N 49°46' W 124°28'5 9.3
2018-May-12 22:30N 49°45' W 124°21'5 9.0
2018-May-12 21:59N 49°45' W 124°14'8 0.3
2018-May-11 16:17N 49°39' W 124°05'2 8.0
2018-May-11 15:59N 49°37' W 124°05'4 7.4
2018-May-11 15:28N 49°33' W 124°06'6 0.4
2018-May-10 22:50N 49°30' W 124°14'38 7.1
2018-May-10 17:31N 49°21' W 123°17'0 9.5
2018-May-10 17:29N 49°20' W 123°17'4 7.6
2018-May-10 17:01N 49°19' W 123°12'4 7.7
2018-May-10 16:30N 49°18' W 123°07'1 1.1
2018-May-10 15:56N 49°18' W 123°08'0 0.0
2018-May-10 15:29N 49°18' W 123°08'0 0.0
2018-May-10 14:59N 49°18' W 123°08'0 0.0
2018-May-10 14:23N 49°18' W 123°08'0 0.0
2018-May-10 13:59N 49°18' W 123°08'0 0.0
2018-May-10 13:26N 49°18' W 123°08'0 0.0
2018-May-10 12:59N 49°18' W 123°08'0 0.0
2018-May-10 12:29N 49°18' W 123°08'0 0.0
2018-May-10 11:59N 49°18' W 123°08'0 0.0
2018-May-10 11:29N 49°18' W 123°08'0 0.0
2018-May-10 10:59N 49°18' W 123°08'0 0.0
2018-May-10 10:29N 49°18' W 123°08'0 0.0
2018-May-10 09:59N 49°18' W 123°08'0 0.0
2018-May-10 09:29N 49°18' W 123°08'0 0.0
2018-May-10 08:59N 49°18' W 123°08'0 0.0
2018-May-10 08:29N 49°18' W 123°08'0 0.0
2018-May-10 07:59N 49°18' W 123°08'0 0.0
2018-May-10 07:29N 49°18' W 123°08'0 0.0
2018-May-10 06:59N 49°18' W 123°08'0 0.0
2018-May-10 06:29N 49°18' W 123°08'0 0.0
2018-May-10 05:50N 49°18' W 123°08'0 0.0
2018-May-10 05:29N 49°18' W 123°08'0 0.0
2018-May-10 04:56N 49°18' W 123°08'0 0.0
2018-May-10 04:20N 49°18' W 123°08'0 0.0
2018-May-10 03:41N 49°18' W 123°08'0 0.0
2018-May-10 03:23N 49°18' W 123°08'0 0.0
2018-May-10 02:56N 49°18' W 123°08'0 0.0
2018-May-10 01:32N 49°18' W 123°08'0 0.1
2018-May-10 01:26N 49°18' W 123°08'0 0.0
2018-May-10 00:50N 49°18' W 123°08'0 0.0
2018-May-10 00:20N 49°18' W 123°08'0 0.0
2018-May-09 23:56N 49°18' W 123°08'0 0.0
2018-May-09 23:29N 49°18' W 123°08'0 0.0
2018-May-09 22:59N 49°18' W 123°08'0 0.0
2018-May-09 22:26N 49°18' W 123°08'0 0.0
2018-May-09 21:59N 49°18' W 123°08'0 0.0
2018-May-09 21:29N 49°18' W 123°08'0 0.0
2018-May-09 20:53N 49°18' W 123°08'0 0.0
2018-May-09 20:26N 49°18' W 123°08'0 0.0
2018-May-09 19:59N 49°18' W 123°08'0 0.0
2018-May-09 19:19N 49°18' W 123°08'0 0.0
2018-May-09 18:58N 49°18' W 123°08'0 0.0
2018-May-09 18:28N 49°18' W 123°08'0 0.0
2018-May-09 17:58N 49°18' W 123°08'0 0.0
2018-May-09 17:28N 49°18' W 123°08'  

Dump ship's entire track history